sensor_id;sensor_type;location;lat;lon;timestamp;P1;durP1;ratioP1;P2;durP2;ratioP2
25069;SDS011;13064;48.162;11.536;2022-10-04T00:07:06;14.25;;;8.25;;
25069;SDS011;13064;48.162;11.536;2022-10-04T00:09:51;13.40;;;8.40;;
25069;SDS011;13064;48.162;11.536;2022-10-04T00:12:21;17.05;;;8.55;;
25069;SDS011;13064;48.162;11.536;2022-10-04T00:14:50;13.02;;;7.85;;
25069;SDS011;13064;48.162;11.536;2022-10-04T00:17:20;17.10;;;9.00;;
25069;SDS011;13064;48.162;11.536;2022-10-04T00:19:50;17.75;;;8.90;;
25069;SDS011;13064;48.162;11.536;2022-10-04T00:23:23;14.13;;;9.00;;
25069;SDS011;13064;48.162;11.536;2022-10-04T00:25:14;13.05;;;8.00;;
25069;SDS011;13064;48.162;11.536;2022-10-04T00:30:35;16.95;;;8.10;;
25069;SDS011;13064;48.162;11.536;2022-10-04T00:33:03;14.45;;;8.35;;
25069;SDS011;13064;48.162;11.536;2022-10-04T00:40:35;12.18;;;8.35;;
25069;SDS011;13064;48.162;11.536;2022-10-04T00:43:06;11.43;;;8.05;;
25069;SDS011;13064;48.162;11.536;2022-10-04T00:45:47;13.75;;;7.65;;
25069;SDS011;13064;48.162;11.536;2022-10-04T00:56:01;13.48;;;7.70;;
25069;SDS011;13064;48.162;11.536;2022-10-04T00:58:32;11.90;;;6.82;;
25069;SDS011;13064;48.162;11.536;2022-10-04T01:01:01;12.40;;;7.75;;
25069;SDS011;13064;48.162;11.536;2022-10-04T01:03:31;14.30;;;7.70;;
25069;SDS011;13064;48.162;11.536;2022-10-04T01:06:00;15.43;;;8.15;;
25069;SDS011;13064;48.162;11.536;2022-10-04T01:08:33;17.33;;;7.63;;
25069;SDS011;13064;48.162;11.536;2022-10-04T01:11:05;13.50;;;6.95;;
25069;SDS011;13064;48.162;11.536;2022-10-04T01:13:38;11.02;;;7.07;;
25069;SDS011;13064;48.162;11.536;2022-10-04T01:16:40;17.17;;;7.47;;
25069;SDS011;13064;48.162;11.536;2022-10-04T01:24:34;11.23;;;7.18;;
25069;SDS011;13064;48.162;11.536;2022-10-04T01:27:01;13.65;;;7.20;;
25069;SDS011;13064;48.162;11.536;2022-10-04T01:29:29;10.65;;;6.72;;
25069;SDS011;13064;48.162;11.536;2022-10-04T01:31:58;11.27;;;6.03;;
25069;SDS011;13064;48.162;11.536;2022-10-04T01:34:27;13.48;;;7.38;;
25069;SDS011;13064;48.162;11.536;2022-10-04T01:36:58;9.52;;;6.03;;
25069;SDS011;13064;48.162;11.536;2022-10-04T01:39:27;11.47;;;6.90;;
25069;SDS011;13064;48.162;11.536;2022-10-04T01:46:58;9.00;;;6.05;;
25069;SDS011;13064;48.162;11.536;2022-10-04T01:49:28;12.07;;;6.72;;
25069;SDS011;13064;48.162;11.536;2022-10-04T01:52:05;10.80;;;5.93;;
25069;SDS011;13064;48.162;11.536;2022-10-04T01:54:35;11.73;;;6.07;;
25069;SDS011;13064;48.162;11.536;2022-10-04T01:57:05;13.65;;;6.40;;
25069;SDS011;13064;48.162;11.536;2022-10-04T01:59:36;9.52;;;6.03;;
25069;SDS011;13064;48.162;11.536;2022-10-04T02:02:25;9.00;;;6.20;;
25069;SDS011;13064;48.162;11.536;2022-10-04T02:04:59;12.43;;;6.85;;
25069;SDS011;13064;48.162;11.536;2022-10-04T02:07:28;8.57;;;6.07;;
25069;SDS011;13064;48.162;11.536;2022-10-04T02:09:58;8.90;;;5.97;;
25069;SDS011;13064;48.162;11.536;2022-10-04T02:12:27;12.10;;;6.25;;
25069;SDS011;13064;48.162;11.536;2022-10-04T02:14:57;9.05;;;5.90;;
25069;SDS011;13064;48.162;11.536;2022-10-04T02:17:28;9.27;;;6.20;;
25069;SDS011;13064;48.162;11.536;2022-10-04T02:19:57;8.73;;;5.82;;
25069;SDS011;13064;48.162;11.536;2022-10-04T02:22:26;9.88;;;5.93;;
25069;SDS011;13064;48.162;11.536;2022-10-04T02:24:55;10.68;;;5.97;;
25069;SDS011;13064;48.162;11.536;2022-10-04T02:27:26;10.00;;;6.25;;
25069;SDS011;13064;48.162;11.536;2022-10-04T02:32:22;12.93;;;6.22;;
25069;SDS011;13064;48.162;11.536;2022-10-04T02:35:08;10.15;;;6.47;;
25069;SDS011;13064;48.162;11.536;2022-10-04T02:37:36;10.20;;;5.72;;
25069;SDS011;13064;48.162;11.536;2022-10-04T02:40:12;8.70;;;5.60;;
25069;SDS011;13064;48.162;11.536;2022-10-04T02:42:43;9.98;;;5.85;;
25069;SDS011;13064;48.162;11.536;2022-10-04T02:45:36;10.20;;;5.78;;
25069;SDS011;13064;48.162;11.536;2022-10-04T02:48:09;9.63;;;5.80;;
25069;SDS011;13064;48.162;11.536;2022-10-04T02:50:48;8.63;;;5.60;;
25069;SDS011;13064;48.162;11.536;2022-10-04T02:56:03;8.25;;;5.28;;
25069;SDS011;13064;48.162;11.536;2022-10-04T02:58:31;11.40;;;6.43;;
25069;SDS011;13064;48.162;11.536;2022-10-04T03:00:59;12.23;;;6.07;;
25069;SDS011;13064;48.162;11.536;2022-10-04T03:03:36;9.63;;;5.57;;
25069;SDS011;13064;48.162;11.536;2022-10-04T03:06:13;9.65;;;5.88;;
25069;SDS011;13064;48.162;11.536;2022-10-04T03:11:10;9.45;;;6.13;;
25069;SDS011;13064;48.162;11.536;2022-10-04T03:13:38;10.35;;;6.07;;
25069;SDS011;13064;48.162;11.536;2022-10-04T03:16:07;8.93;;;5.32;;
25069;SDS011;13064;48.162;11.536;2022-10-04T03:18:35;9.10;;;6.22;;
25069;SDS011;13064;48.162;11.536;2022-10-04T03:21:07;9.85;;;5.18;;
25069;SDS011;13064;48.162;11.536;2022-10-04T03:23:35;10.40;;;6.10;;
25069;SDS011;13064;48.162;11.536;2022-10-04T03:28:31;9.82;;;5.82;;
25069;SDS011;13064;48.162;11.536;2022-10-04T03:30:59;9.63;;;5.55;;
25069;SDS011;13064;48.162;11.536;2022-10-04T03:33:26;11.93;;;6.50;;
25069;SDS011;13064;48.162;11.536;2022-10-04T03:35:55;9.38;;;5.75;;
25069;SDS011;13064;48.162;11.536;2022-10-04T03:38:23;9.95;;;5.90;;
25069;SDS011;13064;48.162;11.536;2022-10-04T03:40:58;9.13;;;5.57;;
25069;SDS011;13064;48.162;11.536;2022-10-04T03:43:27;8.15;;;6.00;;
25069;SDS011;13064;48.162;11.536;2022-10-04T03:46:00;12.20;;;5.80;;
25069;SDS011;13064;48.162;11.536;2022-10-04T03:48:29;7.45;;;5.22;;
25069;SDS011;13064;48.162;11.536;2022-10-04T03:50:57;9.55;;;5.20;;
25069;SDS011;13064;48.162;11.536;2022-10-04T03:53:29;9.50;;;5.68;;
25069;SDS011;13064;48.162;11.536;2022-10-04T03:55:58;7.65;;;5.38;;
25069;SDS011;13064;48.162;11.536;2022-10-04T03:58:30;9.40;;;5.65;;
25069;SDS011;13064;48.162;11.536;2022-10-04T04:03:28;12.43;;;6.07;;
25069;SDS011;13064;48.162;11.536;2022-10-04T04:06:01;7.97;;;5.63;;
25069;SDS011;13064;48.162;11.536;2022-10-04T04:08:32;9.67;;;6.00;;
25069;SDS011;13064;48.162;11.536;2022-10-04T04:11:01;6.90;;;5.78;;
25069;SDS011;13064;48.162;11.536;2022-10-04T04:13:44;11.68;;;6.10;;
25069;SDS011;13064;48.162;11.536;2022-10-04T04:16:13;11.05;;;6.25;;
25069;SDS011;13064;48.162;11.536;2022-10-04T04:18:42;10.07;;;6.18;;
25069;SDS011;13064;48.162;11.536;2022-10-04T04:21:11;8.85;;;6.43;;
25069;SDS011;13064;48.162;11.536;2022-10-04T04:23:49;9.25;;;6.18;;
25069;SDS011;13064;48.162;11.536;2022-10-04T04:31:33;10.70;;;5.80;;
25069;SDS011;13064;48.162;11.536;2022-10-04T04:34:03;11.57;;;5.32;;
25069;SDS011;13064;48.162;11.536;2022-10-04T04:36:37;8.77;;;6.68;;
25069;SDS011;13064;48.162;11.536;2022-10-04T04:39:13;9.20;;;5.72;;
25069;SDS011;13064;48.162;11.536;2022-10-04T04:44:37;10.32;;;6.35;;
25069;SDS011;13064;48.162;11.536;2022-10-04T04:47:05;12.27;;;5.72;;
25069;SDS011;13064;48.162;11.536;2022-10-04T04:49:36;9.25;;;5.82;;
25069;SDS011;13064;48.162;11.536;2022-10-04T04:52:05;9.10;;;6.53;;
25069;SDS011;13064;48.162;11.536;2022-10-04T04:54:40;10.23;;;5.85;;
25069;SDS011;13064;48.162;11.536;2022-10-04T04:57:09;9.73;;;5.75;;
25069;SDS011;13064;48.162;11.536;2022-10-04T04:59:42;8.82;;;5.95;;
25069;SDS011;13064;48.162;11.536;2022-10-04T05:05:21;8.50;;;5.28;;
25069;SDS011;13064;48.162;11.536;2022-10-04T05:08:02;9.40;;;6.10;;
25069;SDS011;13064;48.162;11.536;2022-10-04T05:10:33;10.30;;;6.43;;
25069;SDS011;13064;48.162;11.536;2022-10-04T05:13:01;9.10;;;6.18;;
25069;SDS011;13064;48.162;11.536;2022-10-04T05:15:31;11.02;;;6.88;;
25069;SDS011;13064;48.162;11.536;2022-10-04T05:17:59;10.23;;;5.93;;
25069;SDS011;13064;48.162;11.536;2022-10-04T05:20:27;8.88;;;6.40;;
25069;SDS011;13064;48.162;11.536;2022-10-04T05:22:57;8.60;;;6.10;;
25069;SDS011;13064;48.162;11.536;2022-10-04T05:25:28;11.05;;;6.47;;
25069;SDS011;13064;48.162;11.536;2022-10-04T05:27:58;9.75;;;6.10;;
25069;SDS011;13064;48.162;11.536;2022-10-04T05:33:10;8.88;;;5.57;;
25069;SDS011;13064;48.162;11.536;2022-10-04T05:35:47;8.05;;;6.05;;
25069;SDS011;13064;48.162;11.536;2022-10-04T05:41:07;8.82;;;6.35;;
25069;SDS011;13064;48.162;11.536;2022-10-04T05:43:37;11.15;;;6.55;;
25069;SDS011;13064;48.162;11.536;2022-10-04T05:48:58;12.82;;;7.03;;
25069;SDS011;13064;48.162;11.536;2022-10-04T05:51:28;12.32;;;6.65;;
25069;SDS011;13064;48.162;11.536;2022-10-04T05:53:56;9.73;;;6.22;;
25069;SDS011;13064;48.162;11.536;2022-10-04T06:06:45;12.57;;;6.50;;
25069;SDS011;13064;48.162;11.536;2022-10-04T06:09:31;8.95;;;6.20;;
25069;SDS011;13064;48.162;11.536;2022-10-04T06:22:57;10.10;;;6.03;;
25069;SDS011;13064;48.162;11.536;2022-10-04T06:25:27;11.00;;;6.65;;
25069;SDS011;13064;48.162;11.536;2022-10-04T06:28:05;16.10;;;6.18;;
25069;SDS011;13064;48.162;11.536;2022-10-04T06:30:54;12.45;;;6.47;;
25069;SDS011;13064;48.162;11.536;2022-10-04T06:41:34;12.70;;;6.00;;
25069;SDS011;13064;48.162;11.536;2022-10-04T06:49:33;9.52;;;5.82;;
25069;SDS011;13064;48.162;11.536;2022-10-04T06:52:10;9.85;;;6.28;;
25069;SDS011;13064;48.162;11.536;2022-10-04T07:02:26;11.23;;;6.00;;
25069;SDS011;13064;48.162;11.536;2022-10-04T07:05:01;12.77;;;6.70;;
25069;SDS011;13064;48.162;11.536;2022-10-04T07:07:36;10.98;;;6.43;;
25069;SDS011;13064;48.162;11.536;2022-10-04T07:10:13;12.93;;;6.70;;
25069;SDS011;13064;48.162;11.536;2022-10-04T07:12:43;11.40;;;6.88;;
25069;SDS011;13064;48.162;11.536;2022-10-04T07:15:16;10.98;;;6.72;;
25069;SDS011;13064;48.162;11.536;2022-10-04T07:17:45;12.82;;;6.30;;
25069;SDS011;13064;48.162;11.536;2022-10-04T07:20:25;13.35;;;6.30;;
25069;SDS011;13064;48.162;11.536;2022-10-04T07:22:55;11.75;;;6.15;;
25069;SDS011;13064;48.162;11.536;2022-10-04T07:25:29;10.85;;;6.00;;
25069;SDS011;13064;48.162;11.536;2022-10-04T07:28:02;14.65;;;6.35;;
25069;SDS011;13064;48.162;11.536;2022-10-04T07:30:54;12.75;;;5.53;;
25069;SDS011;13064;48.162;11.536;2022-10-04T07:33:26;13.27;;;5.30;;
25069;SDS011;13064;48.162;11.536;2022-10-04T07:38:28;8.20;;;4.70;;
25069;SDS011;13064;48.162;11.536;2022-10-04T07:43:51;8.70;;;4.55;;
25069;SDS011;13064;48.162;11.536;2022-10-04T07:46:38;12.77;;;4.40;;
25069;SDS011;13064;48.162;11.536;2022-10-04T07:49:19;6.97;;;4.47;;
25069;SDS011;13064;48.162;11.536;2022-10-04T07:54:42;9.93;;;3.90;;
25069;SDS011;13064;48.162;11.536;2022-10-04T07:58:00;7.82;;;3.85;;
25069;SDS011;13064;48.162;11.536;2022-10-04T08:00:11;5.32;;;3.63;;
25069;SDS011;13064;48.162;11.536;2022-10-04T08:10:24;7.30;;;3.70;;
25069;SDS011;13064;48.162;11.536;2022-10-04T08:15:38;7.38;;;3.67;;
25069;SDS011;13064;48.162;11.536;2022-10-04T08:21:00;7.95;;;3.65;;
25069;SDS011;13064;48.162;11.536;2022-10-04T08:23:51;6.53;;;3.53;;
25069;SDS011;13064;48.162;11.536;2022-10-04T08:26:28;8.75;;;3.75;;
25069;SDS011;13064;48.162;11.536;2022-10-04T08:34:59;8.20;;;3.92;;
25069;SDS011;13064;48.162;11.536;2022-10-04T08:37:57;8.52;;;3.50;;
25069;SDS011;13064;48.162;11.536;2022-10-04T08:45:59;8.68;;;3.70;;
25069;SDS011;13064;48.162;11.536;2022-10-04T09:04:58;6.32;;;3.25;;
25069;SDS011;13064;48.162;11.536;2022-10-04T09:07:40;5.55;;;3.45;;
25069;SDS011;13064;48.162;11.536;2022-10-04T09:15:33;7.18;;;3.47;;
25069;SDS011;13064;48.162;11.536;2022-10-04T09:20:45;4.78;;;3.05;;
25069;SDS011;13064;48.162;11.536;2022-10-04T09:28:39;6.07;;;2.88;;
25069;SDS011;13064;48.162;11.536;2022-10-04T09:33:48;8.80;;;3.40;;
25069;SDS011;13064;48.162;11.536;2022-10-04T09:39:07;14.15;;;3.63;;
25069;SDS011;13064;48.162;11.536;2022-10-04T09:42:12;5.10;;;3.10;;
25069;SDS011;13064;48.162;11.536;2022-10-04T09:47:28;5.03;;;2.75;;
25069;SDS011;13064;48.162;11.536;2022-10-04T09:52:31;8.98;;;3.25;;
25069;SDS011;13064;48.162;11.536;2022-10-04T09:55:01;4.13;;;3.05;;
25069;SDS011;13064;48.162;11.536;2022-10-04T10:00:22;4.82;;;2.95;;
25069;SDS011;13064;48.162;11.536;2022-10-04T10:03:16;5.63;;;3.42;;
25069;SDS011;13064;48.162;11.536;2022-10-04T10:11:25;5.07;;;2.88;;
25069;SDS011;13064;48.162;11.536;2022-10-04T10:14:25;7.13;;;2.63;;
25069;SDS011;13064;48.162;11.536;2022-10-04T10:19:35;6.70;;;2.72;;
25069;SDS011;13064;48.162;11.536;2022-10-04T10:27:37;6.03;;;2.33;;
25069;SDS011;13064;48.162;11.536;2022-10-04T10:33:05;4.97;;;2.40;;
25069;SDS011;13064;48.162;11.536;2022-10-04T10:40:54;4.85;;;2.42;;
25069;SDS011;13064;48.162;11.536;2022-10-04T10:43:42;3.53;;;2.13;;
25069;SDS011;13064;48.162;11.536;2022-10-04T10:46:16;4.38;;;2.35;;
25069;SDS011;13064;48.162;11.536;2022-10-04T10:48:56;3.75;;;1.92;;
25069;SDS011;13064;48.162;11.536;2022-10-04T10:54:28;6.88;;;2.38;;
25069;SDS011;13064;48.162;11.536;2022-10-04T10:57:16;10.30;;;2.78;;
25069;SDS011;13064;48.162;11.536;2022-10-04T10:59:55;6.10;;;2.70;;
25069;SDS011;13064;48.162;11.536;2022-10-04T11:05:24;6.10;;;2.58;;
25069;SDS011;13064;48.162;11.536;2022-10-04T11:08:01;3.92;;;2.35;;
25069;SDS011;13064;48.162;11.536;2022-10-04T11:10:49;5.75;;;2.30;;
25069;SDS011;13064;48.162;11.536;2022-10-04T11:13:28;4.30;;;2.33;;
25069;SDS011;13064;48.162;11.536;2022-10-04T11:27:03;4.60;;;2.15;;
25069;SDS011;13064;48.162;11.536;2022-10-04T11:29:42;5.10;;;2.20;;
25069;SDS011;13064;48.162;11.536;2022-10-04T11:35:28;5.82;;;2.30;;
25069;SDS011;13064;48.162;11.536;2022-10-04T11:41:17;7.78;;;1.98;;
25069;SDS011;13064;48.162;11.536;2022-10-04T11:46:41;5.60;;;2.22;;
25069;SDS011;13064;48.162;11.536;2022-10-04T11:49:25;6.55;;;2.25;;
25069;SDS011;13064;48.162;11.536;2022-10-04T12:04:49;7.75;;;2.20;;
25069;SDS011;13064;48.162;11.536;2022-10-04T12:12:44;7.97;;;2.22;;
25069;SDS011;13064;48.162;11.536;2022-10-04T12:20:42;8.18;;;1.80;;
25069;SDS011;13064;48.162;11.536;2022-10-04T12:39:33;7.18;;;2.08;;
25069;SDS011;13064;48.162;11.536;2022-10-04T12:50:19;9.00;;;1.92;;
25069;SDS011;13064;48.162;11.536;2022-10-04T12:58:06;1.92;;;1.73;;
25069;SDS011;13064;48.162;11.536;2022-10-04T13:00:39;5.30;;;1.65;;
25069;SDS011;13064;48.162;11.536;2022-10-04T13:03:23;4.20;;;1.65;;
25069;SDS011;13064;48.162;11.536;2022-10-04T13:06:17;6.00;;;1.80;;
25069;SDS011;13064;48.162;11.536;2022-10-04T13:08:54;3.42;;;1.92;;
25069;SDS011;13064;48.162;11.536;2022-10-04T13:14:15;7.90;;;2.00;;
25069;SDS011;13064;48.162;11.536;2022-10-04T13:16:57;4.40;;;1.90;;
25069;SDS011;13064;48.162;11.536;2022-10-04T13:19:49;6.57;;;2.28;;
25069;SDS011;13064;48.162;11.536;2022-10-04T13:22:21;5.72;;;2.22;;
25069;SDS011;13064;48.162;11.536;2022-10-04T13:25:17;4.15;;;1.80;;
25069;SDS011;13064;48.162;11.536;2022-10-04T13:30:24;6.50;;;2.00;;
25069;SDS011;13064;48.162;11.536;2022-10-04T13:33:01;6.55;;;2.20;;
25069;SDS011;13064;48.162;11.536;2022-10-04T13:38:47;6.53;;;2.10;;
25069;SDS011;13064;48.162;11.536;2022-10-04T13:52:08;3.88;;;1.98;;
25069;SDS011;13064;48.162;11.536;2022-10-04T14:03:19;4.82;;;2.35;;
25069;SDS011;13064;48.162;11.536;2022-10-04T14:16:24;3.50;;;1.70;;
25069;SDS011;13064;48.162;11.536;2022-10-04T14:21:44;4.03;;;2.00;;
25069;SDS011;13064;48.162;11.536;2022-10-04T14:24:24;7.18;;;1.80;;
25069;SDS011;13064;48.162;11.536;2022-10-04T14:29:54;2.58;;;1.70;;
25069;SDS011;13064;48.162;11.536;2022-10-04T14:40:25;2.17;;;1.60;;
25069;SDS011;13064;48.162;11.536;2022-10-04T14:43:01;4.18;;;1.60;;
25069;SDS011;13064;48.162;11.536;2022-10-04T14:45:34;6.20;;;1.75;;
25069;SDS011;13064;48.162;11.536;2022-10-04T14:53:22;4.47;;;1.85;;
25069;SDS011;13064;48.162;11.536;2022-10-04T15:01:17;6.47;;;1.48;;
25069;SDS011;13064;48.162;11.536;2022-10-04T15:11:37;5.53;;;1.92;;
25069;SDS011;13064;48.162;11.536;2022-10-04T15:16:56;3.35;;;1.67;;
25069;SDS011;13064;48.162;11.536;2022-10-04T15:19:30;3.65;;;1.60;;
25069;SDS011;13064;48.162;11.536;2022-10-04T15:24:30;3.72;;;1.65;;
25069;SDS011;13064;48.162;11.536;2022-10-04T15:27:21;4.18;;;1.60;;
25069;SDS011;13064;48.162;11.536;2022-10-04T15:32:24;5.28;;;1.70;;
25069;SDS011;13064;48.162;11.536;2022-10-04T15:37:23;2.25;;;1.60;;
25069;SDS011;13064;48.162;11.536;2022-10-04T15:40:14;3.63;;;1.35;;
25069;SDS011;13064;48.162;11.536;2022-10-04T15:43:02;4.45;;;1.42;;
25069;SDS011;13064;48.162;11.536;2022-10-04T15:56:07;3.03;;;1.77;;
25069;SDS011;13064;48.162;11.536;2022-10-04T16:01:31;6.68;;;1.60;;
25069;SDS011;13064;48.162;11.536;2022-10-04T16:12:04;5.55;;;1.80;;
25069;SDS011;13064;48.162;11.536;2022-10-04T16:22:09;6.55;;;1.50;;
25069;SDS011;13064;48.162;11.536;2022-10-04T16:30:25;3.17;;;1.52;;
25069;SDS011;13064;48.162;11.536;2022-10-04T16:35:29;6.53;;;1.83;;
25069;SDS011;13064;48.162;11.536;2022-10-04T16:37:59;3.95;;;1.85;;
25069;SDS011;13064;48.162;11.536;2022-10-04T16:40:37;3.17;;;2.13;;
25069;SDS011;13064;48.162;11.536;2022-10-04T16:56:10;8.80;;;2.45;;
25069;SDS011;13064;48.162;11.536;2022-10-04T16:58:41;3.95;;;2.35;;
25069;SDS011;13064;48.162;11.536;2022-10-04T17:03:52;6.30;;;2.92;;
25069;SDS011;13064;48.162;11.536;2022-10-04T17:06:40;5.82;;;2.78;;
25069;SDS011;13064;48.162;11.536;2022-10-04T17:17:22;7.53;;;3.33;;
25069;SDS011;13064;48.162;11.536;2022-10-04T17:19:54;5.68;;;2.95;;
25069;SDS011;13064;48.162;11.536;2022-10-04T17:22:26;8.65;;;3.10;;
25069;SDS011;13064;48.162;11.536;2022-10-04T17:25:22;9.90;;;3.13;;
25069;SDS011;13064;48.162;11.536;2022-10-04T17:27:55;5.63;;;3.22;;
25069;SDS011;13064;48.162;11.536;2022-10-04T17:30:24;8.32;;;3.38;;
25069;SDS011;13064;48.162;11.536;2022-10-04T17:40:58;9.90;;;3.92;;
25069;SDS011;13064;48.162;11.536;2022-10-04T17:43:35;7.70;;;3.72;;
25069;SDS011;13064;48.162;11.536;2022-10-04T17:54:23;9.20;;;4.10;;
25069;SDS011;13064;48.162;11.536;2022-10-04T17:57:16;8.90;;;4.22;;
25069;SDS011;13064;48.162;11.536;2022-10-04T17:59:48;8.68;;;4.10;;
25069;SDS011;13064;48.162;11.536;2022-10-04T18:02:22;10.55;;;4.35;;
25069;SDS011;13064;48.162;11.536;2022-10-04T18:04:54;9.70;;;4.07;;
25069;SDS011;13064;48.162;11.536;2022-10-04T18:07:23;9.70;;;4.30;;
25069;SDS011;13064;48.162;11.536;2022-10-04T18:10:13;11.02;;;4.28;;
25069;SDS011;13064;48.162;11.536;2022-10-04T18:12:48;10.95;;;4.45;;
25069;SDS011;13064;48.162;11.536;2022-10-04T18:15:20;10.82;;;4.53;;
25069;SDS011;13064;48.162;11.536;2022-10-04T18:17:52;8.82;;;5.00;;
25069;SDS011;13064;48.162;11.536;2022-10-04T18:20:33;10.77;;;4.93;;
25069;SDS011;13064;48.162;11.536;2022-10-04T18:23:17;8.80;;;4.72;;
25069;SDS011;13064;48.162;11.536;2022-10-04T18:25:47;6.78;;;4.90;;
25069;SDS011;13064;48.162;11.536;2022-10-04T18:28:18;7.88;;;4.60;;
25069;SDS011;13064;48.162;11.536;2022-10-04T18:33:15;8.23;;;5.15;;
25069;SDS011;13064;48.162;11.536;2022-10-04T18:35:51;10.30;;;5.07;;
25069;SDS011;13064;48.162;11.536;2022-10-04T18:38:23;10.75;;;5.55;;
25069;SDS011;13064;48.162;11.536;2022-10-04T18:41:02;10.43;;;5.53;;
25069;SDS011;13064;48.162;11.536;2022-10-04T18:43:48;13.98;;;5.97;;
25069;SDS011;13064;48.162;11.536;2022-10-04T18:46:17;11.85;;;6.05;;
25069;SDS011;13064;48.162;11.536;2022-10-04T18:53:53;13.70;;;5.72;;
25069;SDS011;13064;48.162;11.536;2022-10-04T18:56:25;11.52;;;6.15;;
25069;SDS011;13064;48.162;11.536;2022-10-04T19:02:11;8.77;;;5.72;;
25069;SDS011;13064;48.162;11.536;2022-10-04T19:07:36;9.18;;;5.28;;
25069;SDS011;13064;48.162;11.536;2022-10-04T19:12:46;10.23;;;5.53;;
25069;SDS011;13064;48.162;11.536;2022-10-04T19:20:25;12.02;;;6.45;;
25069;SDS011;13064;48.162;11.536;2022-10-04T19:28:01;12.75;;;5.93;;
25069;SDS011;13064;48.162;11.536;2022-10-04T19:30:40;8.57;;;5.13;;
25069;SDS011;13064;48.162;11.536;2022-10-04T19:33:18;13.38;;;5.40;;
25069;SDS011;13064;48.162;11.536;2022-10-04T19:40:52;9.75;;;6.05;;
25069;SDS011;13064;48.162;11.536;2022-10-04T19:43:26;11.50;;;6.10;;
25069;SDS011;13064;48.162;11.536;2022-10-04T19:48:42;9.00;;;6.03;;
25069;SDS011;13064;48.162;11.536;2022-10-04T19:51:15;10.77;;;6.38;;
25069;SDS011;13064;48.162;11.536;2022-10-04T19:53:47;11.25;;;6.40;;
25069;SDS011;13064;48.162;11.536;2022-10-04T19:56:22;15.50;;;6.47;;
25069;SDS011;13064;48.162;11.536;2022-10-04T19:59:05;13.05;;;7.03;;
25069;SDS011;13064;48.162;11.536;2022-10-04T20:01:36;13.20;;;6.50;;
25069;SDS011;13064;48.162;11.536;2022-10-04T20:04:06;11.13;;;6.30;;
25069;SDS011;13064;48.162;11.536;2022-10-04T20:06:58;13.23;;;6.60;;
25069;SDS011;13064;48.162;11.536;2022-10-04T20:12:03;8.93;;;6.50;;
25069;SDS011;13064;48.162;11.536;2022-10-04T20:21:54;9.55;;;5.75;;
25069;SDS011;13064;48.162;11.536;2022-10-04T20:34:54;10.77;;;6.47;;
25069;SDS011;13064;48.162;11.536;2022-10-04T20:45:42;11.00;;;6.13;;
25069;SDS011;13064;48.162;11.536;2022-10-04T20:48:15;14.50;;;6.03;;
25069;SDS011;13064;48.162;11.536;2022-10-04T20:50:43;8.65;;;6.63;;
25069;SDS011;13064;48.162;11.536;2022-10-04T20:55:45;12.73;;;6.90;;
25069;SDS011;13064;48.162;11.536;2022-10-04T20:58:29;11.10;;;6.57;;
25069;SDS011;13064;48.162;11.536;2022-10-04T21:00:59;9.00;;;6.03;;
25069;SDS011;13064;48.162;11.536;2022-10-04T21:03:32;9.82;;;5.82;;
25069;SDS011;13064;48.162;11.536;2022-10-04T21:06:05;9.30;;;5.95;;
25069;SDS011;13064;48.162;11.536;2022-10-04T21:08:34;11.48;;;6.68;;
25069;SDS011;13064;48.162;11.536;2022-10-04T21:11:05;10.93;;;6.50;;
25069;SDS011;13064;48.162;11.536;2022-10-04T21:14:16;8.60;;;6.00;;
25069;SDS011;13064;48.162;11.536;2022-10-04T21:21:47;13.50;;;6.22;;
25069;SDS011;13064;48.162;11.536;2022-10-04T21:27:24;11.07;;;7.40;;
25069;SDS011;13064;48.162;11.536;2022-10-04T21:29:52;10.93;;;6.65;;
25069;SDS011;13064;48.162;11.536;2022-10-04T21:32:20;10.38;;;7.93;;
25069;SDS011;13064;48.162;11.536;2022-10-04T21:34:48;9.38;;;6.20;;
25069;SDS011;13064;48.162;11.536;2022-10-04T21:37:20;10.30;;;6.40;;
25069;SDS011;13064;48.162;11.536;2022-10-04T21:39:48;9.07;;;5.70;;
25069;SDS011;13064;48.162;11.536;2022-10-04T21:42:15;10.77;;;5.65;;
25069;SDS011;13064;48.162;11.536;2022-10-04T21:44:43;11.40;;;8.32;;
25069;SDS011;13064;48.162;11.536;2022-10-04T21:47:11;7.63;;;5.38;;
25069;SDS011;13064;48.162;11.536;2022-10-04T21:49:38;8.73;;;5.30;;
25069;SDS011;13064;48.162;11.536;2022-10-04T21:52:06;11.65;;;5.85;;
25069;SDS011;13064;48.162;11.536;2022-10-04T21:54:33;11.20;;;5.85;;
25069;SDS011;13064;48.162;11.536;2022-10-04T21:57:01;7.25;;;5.30;;
25069;SDS011;13064;48.162;11.536;2022-10-04T21:59:28;9.10;;;5.43;;
25069;SDS011;13064;48.162;11.536;2022-10-04T22:01:56;7.65;;;5.32;;
25069;SDS011;13064;48.162;11.536;2022-10-04T22:04:24;10.52;;;5.32;;
25069;SDS011;13064;48.162;11.536;2022-10-04T22:06:51;11.02;;;5.70;;
25069;SDS011;13064;48.162;11.536;2022-10-04T22:09:19;12.90;;;6.05;;
25069;SDS011;13064;48.162;11.536;2022-10-04T22:11:46;8.13;;;4.93;;
25069;SDS011;13064;48.162;11.536;2022-10-04T22:14:14;7.90;;;5.30;;
25069;SDS011;13064;48.162;11.536;2022-10-04T22:16:42;12.93;;;5.45;;
25069;SDS011;13064;48.162;11.536;2022-10-04T22:19:10;8.82;;;5.20;;
25069;SDS011;13064;48.162;11.536;2022-10-04T22:21:37;7.18;;;4.85;;
25069;SDS011;13064;48.162;11.536;2022-10-04T22:24:09;9.68;;;5.15;;
25069;SDS011;13064;48.162;11.536;2022-10-04T22:26:36;7.13;;;4.95;;
25069;SDS011;13064;48.162;11.536;2022-10-04T22:29:08;11.20;;;5.72;;
25069;SDS011;13064;48.162;11.536;2022-10-04T22:31:38;7.63;;;4.65;;
25069;SDS011;13064;48.162;11.536;2022-10-04T22:34:14;12.13;;;5.65;;
25069;SDS011;13064;48.162;11.536;2022-10-04T22:36:42;11.23;;;5.30;;
25069;SDS011;13064;48.162;11.536;2022-10-04T22:41:41;10.45;;;5.85;;
25069;SDS011;13064;48.162;11.536;2022-10-04T22:46:43;7.22;;;5.28;;
25069;SDS011;13064;48.162;11.536;2022-10-04T22:49:14;6.03;;;4.75;;
25069;SDS011;13064;48.162;11.536;2022-10-04T22:51:43;10.23;;;4.80;;
25069;SDS011;13064;48.162;11.536;2022-10-04T22:54:14;8.65;;;5.18;;
25069;SDS011;13064;48.162;11.536;2022-10-04T22:56:42;9.32;;;5.15;;
25069;SDS011;13064;48.162;11.536;2022-10-04T22:59:11;7.10;;;5.13;;
25069;SDS011;13064;48.162;11.536;2022-10-04T23:01:39;9.40;;;4.97;;
25069;SDS011;13064;48.162;11.536;2022-10-04T23:04:26;11.02;;;4.75;;
25069;SDS011;13064;48.162;11.536;2022-10-04T23:06:54;6.75;;;4.72;;
25069;SDS011;13064;48.162;11.536;2022-10-04T23:09:21;12.90;;;5.32;;
25069;SDS011;13064;48.162;11.536;2022-10-04T23:11:49;7.82;;;5.20;;
25069;SDS011;13064;48.162;11.536;2022-10-04T23:14:16;6.45;;;5.15;;
25069;SDS011;13064;48.162;11.536;2022-10-04T23:16:44;7.95;;;4.88;;
25069;SDS011;13064;48.162;11.536;2022-10-04T23:19:15;8.52;;;4.80;;
25069;SDS011;13064;48.162;11.536;2022-10-04T23:21:47;6.20;;;4.65;;
25069;SDS011;13064;48.162;11.536;2022-10-04T23:24:19;8.05;;;5.30;;
25069;SDS011;13064;48.162;11.536;2022-10-04T23:26:53;8.85;;;5.35;;
25069;SDS011;13064;48.162;11.536;2022-10-04T23:29:25;8.30;;;4.75;;
25069;SDS011;13064;48.162;11.536;2022-10-04T23:31:54;6.60;;;5.32;;
25069;SDS011;13064;48.162;11.536;2022-10-04T23:34:33;7.75;;;4.78;;
25069;SDS011;13064;48.162;11.536;2022-10-04T23:37:01;8.70;;;5.38;;
25069;SDS011;13064;48.162;11.536;2022-10-04T23:39:29;6.15;;;5.07;;
25069;SDS011;13064;48.162;11.536;2022-10-04T23:41:59;5.57;;;4.45;;
25069;SDS011;13064;48.162;11.536;2022-10-04T23:44:33;9.15;;;5.38;;
25069;SDS011;13064;48.162;11.536;2022-10-04T23:47:02;6.93;;;5.15;;